Search for airport 
image banner adimage banner ad
image banner ad

EVSM - Lielvarde M Sola

Located in Lielvarde, Latvia

ICAO - , IATA -

Data provided by Airmate  

General information

Coordinates: N56°39'59" E24°54'11"
Elevation is 142 feet MSL.
Magnetic variation is 7° East
Rated:
View ratings: [VIEW]


View others Airports in Ogre District

Operational data

Open for public use
Current time UTC:
Current local time:
Weather at : EVRA - Riga ( 64 km )
METAR: EVRA 070050Z 19001KT CAVOK 14/13 Q1027 NOSIG
TAF: TAF EVRA 062304Z 0700/0724 VRB02KT CAVOK
View NOTAMs / SUP AIP / TFR affecting this airport [VIEW]
Communications frequencies: [VIEW]

Runways:

Airport contact information

Address: Lielvarde Latvia

Satellite view of EVSM